Map

Track Data

SID SEASON NUMBER BASIN SUBBASIN NAME ISO_TIME NATURE LAT LON WMO_WIND WMO_PRES WMO_AGENCY TRACK_TYPE DIST2LAND LANDFALL IFLAG USA_AGENCY USA_ATCF_ID USA_LAT USA_LON USA_RECORD USA_STATUS USA_WIND USA_PRES USA_SSHS USA_R34_NE USA_R34_SE USA_R34_SW USA_R34_NW USA_R50_NE USA_R50_SE USA_R50_SW USA_R50_NW USA_R64_NE USA_R64_SE USA_R64_SW USA_R64_NW USA_POCI USA_ROCI USA_RMW USA_EYE TOKYO_LAT TOKYO_LON TOKYO_GRADE TOKYO_WIND TOKYO_PRES TOKYO_R50_DIR TOKYO_R50_LONG TOKYO_R50_SHORT TOKYO_R30_DIR TOKYO_R30_LONG TOKYO_R30_SHORT TOKYO_LAND CMA_LAT CMA_LON CMA_CAT CMA_WIND CMA_PRES HKO_LAT HKO_LON HKO_CAT HKO_WIND HKO_PRES NEWDELHI_LAT NEWDELHI_LON NEWDELHI_GRADE NEWDELHI_WIND NEWDELHI_PRES NEWDELHI_CI NEWDELHI_DP NEWDELHI_POCI REUNION_LAT REUNION_LON REUNION_TYPE REUNION_WIND REUNION_PRES REUNION_TNUM REUNION_CI REUNION_RMW REUNION_R34_NE REUNION_R34_SE REUNION_R34_SW REUNION_R34_NW REUNION_R50_NE REUNION_R50_SE REUNION_R50_SW REUNION_R50_NW REUNION_R64_NE REUNION_R64_SE REUNION_R64_SW REUNION_R64_NW BOM_LAT BOM_LON BOM_TYPE BOM_WIND BOM_PRES BOM_TNUM BOM_CI BOM_RMW BOM_R34_NE BOM_R34_SE BOM_R34_SW BOM_R34_NW BOM_R50_NE BOM_R50_SE BOM_R50_SW BOM_R50_NW BOM_R64_NE BOM_R64_SE BOM_R64_SW BOM_R64_NW BOM_ROCI BOM_POCI BOM_EYE BOM_POS_METHOD BOM_PRES_METHOD NADI_LAT NADI_LON NADI_CAT NADI_WIND NADI_PRES WELLINGTON_LAT WELLINGTON_LON WELLINGTON_WIND WELLINGTON_PRES DS824_LAT DS824_LON DS824_STAGE DS824_WIND DS824_PRES TD9636_LAT TD9636_LON TD9636_STAGE TD9636_WIND TD9636_PRES TD9635_LAT TD9635_LON TD9635_WIND TD9635_PRES TD9635_ROCI NEUMANN_LAT NEUMANN_LON NEUMANN_CLASS NEUMANN_WIND NEUMANN_PRES MLC_LAT MLC_LON MLC_CLASS MLC_WIND MLC_PRES USA_GUST BOM_GUST BOM_GUST_PER REUNION_GUST REUNION_GUST_PER USA_SEAHGT USA_SEARAD_NE USA_SEARAD_SE USA_SEARAD_SW USA_SEARAD_NW STORM_SPEED STORM_DIR
1896042S11062 1896 5 SI MM NOT_NAMED 1896-02-11 00:00:00 TS -11.4000 61.8000 main 1067 1057 _________O____ -1 -11.4000 61.8000 TC 2 209
1896042S11062 1896 5 SI MM NOT_NAMED 1896-02-11 03:00:00 TS -11.4775 61.7600 main 1057 1043 _________P____ -1 -11.4775 61.7600 TC 2 207
1896042S11062 1896 5 SI MM NOT_NAMED 1896-02-11 06:00:00 TS -11.6000 61.7000 main 1043 1018 _________O____ -1 -11.6000 61.7000 TC 4 205
1896042S11062 1896 5 SI MM NOT_NAMED 1896-02-11 09:00:00 TS -11.7925 61.6075 main 1018 993 _________P____ -1 -11.7925 61.6075 TC 4 206
1896042S11062 1896 5 SI MM NOT_NAMED 1896-02-11 12:00:00 TS -12.0000 61.5000 main 993 978 _________O____ -1 -12.0000 61.5000 TC 4 210
1896042S11062 1896 5 SI MM NOT_NAMED 1896-02-11 15:00:00 TS -12.1575 61.3925 main 968 953 _________P____ -1 -12.1575 61.3925 TC 4 213
1896042S11062 1896 5 SI MM NOT_NAMED 1896-02-11 18:00:00 TS -12.3000 61.3000 main 953 939 _________O____ -1 -12.3000 61.3000 TC 3 207
1896042S11062 1896 5 SI MM NOT_NAMED 1896-02-11 21:00:00 TS -12.4500 61.2425 main 939 918 _________P____ -1 -12.4500 61.2425 TC 3 197
1896042S11062 1896 5 SI MM NOT_NAMED 1896-02-12 00:00:00 TS -12.6000 61.2000 main 918 908 _________O____ -1 -12.6000 61.2000 TC 3 194
1896042S11062 1896 5 SI MM NOT_NAMED 1896-02-12 03:00:00 TS -12.7575 61.1575 main 898 883 _________P____ -1 -12.7575 61.1575 TC 3 197
1896042S11062 1896 5 SI MM NOT_NAMED 1896-02-12 06:00:00 TS -12.9000 61.1000 main 883 868 _________O____ -1 -12.9000 61.1000 TC 3 213
1896042S11062 1896 5 SI MM NOT_NAMED 1896-02-12 09:00:00 TS -13.0000 61.0000 main 868 854 _________P____ -1 -13.0000 61.0000 TC 3 224
1896042S11062 1896 5 SI MM NOT_NAMED 1896-02-12 12:00:00 TS -13.1000 60.9000 main 854 844 _________O____ -1 -13.1000 60.9000 TC 3 212
1896042S11062 1896 5 SI MM NOT_NAMED 1896-02-12 15:00:00 TS -13.2425 60.8500 main 839 819 _________P____ -1 -13.2425 60.8500 TC 3 197
1896042S11062 1896 5 SI MM NOT_NAMED 1896-02-12 18:00:00 TS -13.4000 60.8000 main 819 804 _________O____ -1 -13.4000 60.8000 TC 3 204
1896042S11062 1896 5 SI MM NOT_NAMED 1896-02-12 21:00:00 TS -13.5500 60.7075 main 804 779 _________P____ -1 -13.5500 60.7075 TC 4 213
1896042S11062 1896 5 SI MM NOT_NAMED 1896-02-13 00:00:00 TS -13.7000 60.6000 main 779 765 _________O____ -1 -13.7000 60.6000 TC 4 213
1896042S11062 1896 5 SI MM NOT_NAMED 1896-02-13 03:00:00 TS -13.8500 60.5075 main 765 740 _________P____ -1 -13.8500 60.5075 TC 4 213
1896042S11062 1896 5 SI MM NOT_NAMED 1896-02-13 06:00:00 TS -14.0000 60.4000 main 740 726 _________O____ -1 -14.0000 60.4000 TC 4 221
1896042S11062 1896 5 SI MM NOT_NAMED 1896-02-13 09:00:00 TS -14.1500 60.2425 main 711 697 _________P____ -1 -14.1500 60.2425 TC 4 224
1896042S11062 1896 5 SI MM NOT_NAMED 1896-02-13 12:00:00 TS -14.3000 60.1000 main 697 682 _________O____ -1 -14.3000 60.1000 TC 4 212
1896042S11062 1896 5 SI MM NOT_NAMED 1896-02-13 15:00:00 TS -14.4575 60.0425 main 672 662 _________P____ -1 -14.4575 60.0425 TC 3 197
1896042S11062 1896 5 SI MM NOT_NAMED 1896-02-13 18:00:00 TS -14.6000 60.0000 main 662 647 _________O____ -1 -14.6000 60.0000 TC 3 209
1896042S11062 1896 5 SI MM NOT_NAMED 1896-02-13 21:00:00 TS -14.7000 59.9075 main 647 633 _________P____ -1 -14.7000 59.9075 TC 3 224
1896042S11062 1896 5 SI MM NOT_NAMED 1896-02-14 00:00:00 TS -14.8000 59.8000 main 633 619 _________O____ -1 -14.8000 59.8000 TC 3 219
1896042S11062 1896 5 SI MM NOT_NAMED 1896-02-14 03:00:00 TS -14.9500 59.7000 main 619 594 _________P____ -1 -14.9500 59.7000 TC 4 213
1896042S11062 1896 5 SI MM NOT_NAMED 1896-02-14 06:00:00 TS -15.1000 59.6000 main 594 580 _________O____ -1 -15.1000 59.6000 TC 3 217
1896042S11062 1896 5 SI MM NOT_NAMED 1896-02-14 09:00:00 TS -15.2075 59.5000 main 580 566 _________P____ -1 -15.2075 59.5000 TC 3 224
1896042S11062 1896 5 SI MM NOT_NAMED 1896-02-14 12:00:00 TS -15.3000 59.4000 main 566 552 _________O____ -1 -15.3000 59.4000 TC 3 228
1896042S11062 1896 5 SI MM NOT_NAMED 1896-02-14 15:00:00 TS -15.3925 59.2925 main 552 538 _________P____ -1 -15.3925 59.2925 TC 3 224
1896042S11062 1896 5 SI MM NOT_NAMED 1896-02-14 18:00:00 TS -15.5000 59.2000 main 538 527 _________O____ -1 -15.5000 59.2000 TC 3 208
1896042S11062 1896 5 SI MM NOT_NAMED 1896-02-14 21:00:00 TS -15.6425 59.1575 main 527 503 _________P____ -1 -15.6425 59.1575 TC 3 197
1896042S11062 1896 5 SI MM NOT_NAMED 1896-02-15 00:00:00 TS -15.8000 59.1000 main 503 489 _________O____ -1 -15.8000 59.1000 TC 4 211
1896042S11062 1896 5 SI MM NOT_NAMED 1896-02-15 03:00:00 TS -15.9500 58.9650 main 478 462 _________P____ -1 -15.9500 58.9650 TC 4 224
1896042S11062 1896 5 SI MM NOT_NAMED 1896-02-15 06:00:00 TS -16.1000 58.8000 main 462 448 _________O____ -1 -16.1000 58.8000 TC 4 226
1896042S11062 1896 5 SI MM NOT_NAMED 1896-02-15 09:00:00 TS -16.2500 58.6425 main 446 422 _________P____ -1 -16.2500 58.6425 TC 4 224
1896042S11062 1896 5 SI MM NOT_NAMED 1896-02-15 12:00:00 TS -16.4000 58.5000 main 422 409 _________O____ -1 -16.4000 58.5000 TC 4 219
1896042S11062 1896 5 SI MM NOT_NAMED 1896-02-15 15:00:00 TS -16.5500 58.3925 main 409 385 _________P____ -1 -16.5500 58.3925 TC 4 212
1896042S11062 1896 5 SI MM NOT_NAMED 1896-02-15 18:00:00 TS -16.7000 58.3000 main 385 372 _________O____ -1 -16.7000 58.3000 TC 4 210
1896042S11062 1896 5 SI MM NOT_NAMED 1896-02-15 21:00:00 TS -16.8500 58.2075 main 372 349 _________P____ -1 -16.8500 58.2075 TC 4 212
1896042S11062 1896 5 SI MM NOT_NAMED 1896-02-16 00:00:00 TS -17.0000 58.1000 main 349 337 _________O____ -1 -17.0000 58.1000 TC 4 220
1896042S11062 1896 5 SI MM NOT_NAMED 1896-02-16 03:00:00 TS -17.1425 57.9500 main 337 313 _________P____ -1 -17.1425 57.9500 TC 4 223
1896042S11062 1896 5 SI MM NOT_NAMED 1896-02-16 06:00:00 TS -17.3000 57.8000 main 313 290 _________O____ -1 -17.3000 57.8000 TC 4 215
1896042S11062 1896 5 SI MM NOT_NAMED 1896-02-16 09:00:00 TS -17.5000 57.6850 main 290 268 _________P____ -1 -17.5000 57.6850 TC 4 205
1896042S11062 1896 5 SI MM NOT_NAMED 1896-02-16 12:00:00 TS -17.7000 57.6000 main 268 257 _________O____ -1 -17.7000 57.6000 TC 4 201
1896042S11062 1896 5 SI MM NOT_NAMED 1896-02-16 15:00:00 TS -17.8575 57.5425 main 246 234 _________P____ -1 -17.8575 57.5425 TC 3 197
1896042S11062 1896 5 SI MM NOT_NAMED 1896-02-16 18:00:00 TS -18.0000 57.5000 main 234 223 _________O____ -1 -18.0000 57.5000 TC 3 197
1896042S11062 1896 5 SI MM NOT_NAMED 1896-02-16 21:00:00 TS -18.1350 57.4500 main 223 201 _________P____ -1 -18.1350 57.4500 TC 3 197
1896042S11062 1896 5 SI MM NOT_NAMED 1896-02-17 00:00:00 TS -18.3000 57.4000 main 201 179 _________O____ -1 -18.3000 57.4000 TC 4 195
1896042S11062 1896 5 SI MM NOT_NAMED 1896-02-17 03:00:00 TS -18.5350 57.3351 main 180 146 _________P____ -1 -18.5350 57.3351 TC 5 191
1896042S11062 1896 5 SI MM NOT_NAMED 1896-02-17 06:00:00 TS -18.8000 57.3000 main 146 113 _________O____ -1 -18.8000 57.3000 TC 5 0
1896042S11062 1896 5 SI MM NOT_NAMED 1896-02-17 09:00:00 TS -19.0650 57.3349 main 113 90 _________P____ -1 -19.0650 57.3349 TC 5 169
1896042S11062 1896 5 SI MM NOT_NAMED 1896-02-17 12:00:00 TS -19.3000 57.4000 main 90 67 _________O____ -1 -19.3000 57.4000 TC 4 166
1896042S11062 1896 5 SI MM NOT_NAMED 1896-02-17 15:00:00 TS -19.4650 57.4425 main 67 55 _________P____ -1 -19.4650 57.4425 TC 3 163
1896042S11062 1896 5 SI MM NOT_NAMED 1896-02-17 18:00:00 TS -19.6000 57.5000 main 55 44 _________O____ -1 -19.6000 57.5000 TC 3 153
1896042S11062 1896 5 SI MM NOT_NAMED 1896-02-17 21:00:00 TS -19.7425 57.5925 main 44 22 _________P____ -1 -19.7425 57.5925 TC 4 148
1896042S11062 1896 5 SI MM NOT_NAMED 1896-02-18 00:00:00 TS -19.9000 57.7000 main 22 10 _________O____ -1 -19.9000 57.7000 TC 4 151
1896042S11062 1896 5 SI MM NOT_NAMED 1896-02-18 03:00:00 TS -20.0850 57.7926 main 10 10 _________P____ -1 -20.0850 57.7926 TC 4 155
1896042S11062 1896 5 SI MM NOT_NAMED 1896-02-18 06:00:00 TS -20.3000 57.9000 main 10 10 _________O____ -1 -20.3000 57.9000 TC 5 152
1896042S11062 1896 5 SI MM NOT_NAMED 1896-02-18 09:00:00 TS -20.5425 58.0500 main 30 30 _________P____ -1 -20.5425 58.0500 TC 6 151
1896042S11062 1896 5 SI MM NOT_NAMED 1896-02-18 12:00:00 TS -20.8000 58.2000 main 61 61 _________O____ -1 -20.8000 58.2000 TC 6 156
1896042S11062 1896 5 SI MM NOT_NAMED 1896-02-18 15:00:00 TS -21.0575 58.3001 main 91 91 _________P____ -1 -21.0575 58.3001 TC 5 160
1896042S11062 1896 5 SI MM NOT_NAMED 1896-02-18 18:00:00 TS -21.3000 58.4000 main 115 115 _________O____ -1 -21.3000 58.4000 TC 5 154
1896042S11062 1896 5 SI MM NOT_NAMED 1896-02-18 21:00:00 TS -21.5101 58.5374 main 139 139 _________P____ -1 -21.5101 58.5374 TC 5 145
1896042S11062 1896 5 SI MM NOT_NAMED 1896-02-19 00:00:00 TS -21.7000 58.7000 main 169 _________O____ -1 -21.7000 58.7000 TC 5 141

About IBTrACS Database

This database is a web-friendly format of International Best Track Archive for Climate Stewardship (IBTrACS), a global best track data archive curated by NOAA dating back to 1842.

Updated: 2021-11-26